CheckWX is a tool to help pilots better visualize weather data.  It is not intended as a substitute for an official pre-flight weather briefing.

15:39:07 UTC

PTRO TAF
Babelthuap / Koror Airport
Babelthuap Island, Palau
PTRO 221124Z 2212/2312 24007KT P6SM VCSH SCT010 SCT016 BKN120

Aug-22@
12:00 UTC

Aug-22 @ 12:00 UTC

Aug-23@
12:00 UTC

Aug-23 @ 12:00 UTC

PTRO 221124Z 2212/2312 24007KT P6SM VCSH SCT010 SCT016 BKN120
Wind
  • 240° at 7 KTS
Cloud Levels
  • Scattered at 1,000' AGL
  • Scattered at 1,600' AGL
  • Broken at 12,000' AGL